Airfield :







YOU CAN JOIN US ON...

 
LOGIN :

Register | Disclaimer

   EN    FR    IT 

 









Legend :    VFR   Marginal VFR   IFR   Intensive IFR   Very Intensive IFR
Visi :
Ceiling :
>= 8 km
>= 3000ft
5 to 8 km
1000 to 3000 ft
1500m to 5 km
500 to 1000 ft
800 to 1500m
200 to 500 ft
< 800m
< 200 ft
Symbols :   Thunderstorms  Fog  Heavy snow  Heavy precipitations  Wind > 20 kt






- Airport Elevation : 74 ft
- IATA code : STX


TISX - Henri E Rohlsen

CURRENT METAR :
  • 241753Z 16007KT 120V200 10SM FEW030 FEW050 28/18 A3000 RMK AO2 SLP158 T02830183 10294 20239 56018

EXPIRED METARs :
  • 241653Z 13008KT 10SM FEW030 FEW050 29/19 A3002 RMK AO2 SLP164 T02940189
  • 241553Z 14009KT 10SM FEW035 28/19 A3004 RMK AO2 SLP169 T02830189

TAF TISX
Valid from the 24 at 18:00 until the 25 at 18:00 UTC


241740Z 2418/2518 11009KT P6SM FEW030 SCT050
FM242300 03005KT P6SM FEW030
FM251300 07012KT P6SM FEW025 SCT050



MET'MAP, your aeronautical weather chart ! - Copyright ORBIFLY December 2007 - Disclaimer

ORBIFLY MET'MAP TEAM :

Programming & Development : Alexandra Zaïnal
Concept & original design : Baudouin d'Aumeries
Assistance for programming : Marc-Olivier Méhu
Technical & hardware support : Manuel Goepfert

Contact : metmap@orbifly.com




SOURCES & CREDITS :

   NOAA